This is the latest recevied weather packets stored in our database for station/object OE3DJB-10. If no packets are shown the sender has not sent any weather packets the latest 10 day(s).
| Time | Temp. | Humidity | Pressure | Rain* | Wind** | Luminosity | Snow |
|---|---|---|---|---|---|---|---|
| 1778259451 | 20° C | 40% | 1020.3 hPa | - | - | - | - |
| 1778258551 | 20.56° C | 40% | 1020.3 hPa | - | - | - | - |
| 1778257651 | 20.56° C | 39% | 1020.4 hPa | - | - | - | - |
| 1778256751 | 21.11° C | 39% | 1020.3 hPa | - | - | - | - |
| 1778255851 | 21.67° C | 37% | 1020.3 hPa | - | - | - | - |
| 1778254951 | 22.22° C | 38% | 1020.3 hPa | - | - | - | - |
| 1778254051 | 23.33° C | 38% | 1020.3 hPa | - | - | - | - |
| 1778253151 | 23.89° C | 37% | 1020.4 hPa | - | - | - | - |
| 1778252250 | 23.89° C | 37% | 1020.5 hPa | - | - | - | - |
| 1778251350 | 24.44° C | 38% | 1020.5 hPa | - | - | - | - |
| 1778250450 | 24.44° C | 38% | 1020.7 hPa | - | - | - | - |
| 1778249550 | 24.44° C | 38% | 1020.7 hPa | - | - | - | - |
| 1778248650 | 24.44° C | 38% | 1020.7 hPa | - | - | - | - |
| 1778247750 | 24.44° C | 38% | 1020.8 hPa | - | - | - | - |
| 1778246850 | 24.44° C | 38% | 1020.8 hPa | - | - | - | - |
| 1778245950 | 23.89° C | 38% | 1021 hPa | - | - | - | - |
| 1778245049 | 23.89° C | 38% | 1021 hPa | - | - | - | - |
| 1778244149 | 23.89° C | 38% | 1021.1 hPa | - | - | - | - |
| 1778243249 | 23.89° C | 38% | 1021.2 hPa | - | - | - | - |
| 1778242349 | 23.89° C | 38% | 1021.2 hPa | - | - | - | - |
| 1778241449 | 23.33° C | 38% | 1021.2 hPa | - | - | - | - |
| 1778240549 | 22.78° C | 38% | 1021.1 hPa | - | - | - | - |
| 1778239649 | 22.22° C | 39% | 1021.4 hPa | - | - | - | - |
| 1778238748 | 20° C | 42% | 1021.5 hPa | - | - | - | - |
| 1778237847 | 16.11° C | 49% | 1021.6 hPa | - | - | - | - |
* Rain since midnight (hover to see other rain measurements)
** Current wind speed in m/s (hover to see current wind gust speed)